Dades de l'estació automàtica Pantà de Riba-roja
Resum diari
16:30 TU| Temperatura mitjana | 15.8 °C | |
|---|---|---|
| Temperatura màxima | 22.0 °C | 12:47 TU |
| Temperatura mínima | 8.7 °C | 5:27 TU |
| Humitat relativa mitjana | 66% | |
| Precipitació acumulada | 0.0 mm | |
| Ratxa màxima del vent (2 m) | 33.5 km/h - 135º | 14:21 TU |
| Irradiació solar global | 22.5 MJ/m2 | |
El tram horari està expressat en Temps Universal (TU). Cal sumar una hora en horari d'hivern i dues en horari d'estiu per passar a l'hora oficial.
Pantà de Riba-roja
| Municipi | Riba-roja d'Ebre |
|---|---|
| Comarca | Ribera d'Ebre |
| Altitud | 77 m |
| Data alta | 18.11.1996 |
| Estat actual | Operativa |
| Període TU |
TM °C |
TX °C |
TN °C |
HRM % |
PPT mm |
VVM (2 m) km/h |
DVM (2 m) graus |
VVX (2 m) km/h |
RS W/m2 |
|---|---|---|---|---|---|---|---|---|---|
| 00:00 - 00:30 | 11.7 | 11.9 | 11.3 | 78 | 0.0 | 0.7 | 134 | 5.0 | 0 |
| 00:30 - 01:00 | 11.0 | 11.4 | 10.6 | 82 | 0.0 | 1.1 | 174 | 6.8 | 0 |
| 01:00 - 01:30 | 10.9 | 11.0 | 10.8 | 84 | 0.0 | 0.4 | 160 | 2.9 | 0 |
| 01:30 - 02:00 | 10.6 | 10.9 | 10.4 | 82 | 0.0 | 3.6 | 267 | 10.8 | 0 |
| 02:00 - 02:30 | 10.3 | 10.5 | 10.0 | 83 | 0.0 | 3.2 | 265 | 11.9 | 0 |
| 02:30 - 03:00 | 10.3 | 10.4 | 10.1 | 79 | 0.0 | 4.7 | 285 | 10.8 | 0 |
| 03:00 - 03:30 | 9.8 | 10.4 | 9.3 | 89 | 0.0 | 1.1 | 146 | 4.7 | 0 |
| 03:30 - 04:00 | 9.7 | 9.9 | 9.3 | 86 | 0.0 | 3.6 | 260 | 10.4 | 0 |
| 04:00 - 04:30 | 9.2 | 9.9 | 8.8 | 92 | 0.0 | 2.5 | 160 | 8.3 | 0 |
| 04:30 - 05:00 | 9.2 | 9.4 | 8.9 | 93 | 0.0 | 0.7 | 181 | 4.0 | 1 |
| 05:00 - 05:30 | 9.0 | 9.3 | 8.7 | 93 | 0.0 | 1.8 | 170 | 7.2 | 17 |
| 05:30 - 06:00 | 9.6 | 10.4 | 8.9 | 91 | 0.0 | 0.7 | 157 | 4.0 | 82 |
| 06:00 - 06:30 | 11.6 | 12.7 | 10.6 | 79 | 0.0 | 1.1 | 68 | 5.0 | 248 |
| 06:30 - 07:00 | 13.0 | 13.6 | 12.3 | 72 | 0.0 | 1.1 | 6 | 3.2 | 334 |
| 07:00 - 07:30 | 13.1 | 13.5 | 12.8 | 72 | 0.0 | 1.1 | 330 | 4.3 | 274 |
| 07:30 - 08:00 | 14.3 | 15.4 | 13.5 | 67 | 0.0 | 0.7 | 174 | 4.7 | 318 |
| 08:00 - 08:30 | 15.7 | 16.8 | 14.8 | 64 | 0.0 | 1.4 | 213 | 7.2 | 501 |
| 08:30 - 09:00 | 17.7 | 18.6 | 16.7 | 59 | 0.0 | 2.5 | 248 | 9.4 | 710 |
| 09:00 - 09:30 | 18.8 | 19.3 | 18.4 | 58 | 0.0 | 8.3 | 66 | 18.4 | 674 |
| 09:30 - 10:00 | 19.7 | 19.9 | 19.3 | 54 | 0.0 | 7.6 | 68 | 22.3 | 772 |
| 10:00 - 10:30 | 20.0 | 20.4 | 19.6 | 52 | 0.0 | 6.1 | 74 | 20.9 | 785 |
| 10:30 - 11:00 | 20.4 | 20.8 | 20.2 | 50 | 0.0 | 7.6 | 64 | 20.9 | 784 |
| 11:00 - 11:30 | 21.0 | 21.2 | 20.7 | 48 | 0.0 | 6.8 | 64 | 22.0 | 725 |
| 11:30 - 12:00 | 21.0 | 21.6 | 20.6 | 47 | 0.0 | 8.3 | 77 | 20.5 | 718 |
| 12:00 - 12:30 | 21.6 | 21.9 | 21.4 | 47 | 0.0 | 7.6 | 76 | 22.0 | 1.001 |
| 12:30 - 13:00 | 21.6 | 22.0 | 21.1 | 49 | 0.0 | 9.7 | 77 | 27.4 | 605 |
| 13:00 - 13:30 | 21.2 | 21.5 | 20.9 | 51 | 0.0 | 8.3 | 66 | 25.2 | 461 |
| 13:30 - 14:00 | 21.1 | 21.5 | 20.9 | 51 | 0.0 | 10.1 | 73 | 24.8 | 482 |
| 14:00 - 14:30 | 20.9 | 21.2 | 20.6 | 52 | 0.0 | 9.0 | 79 | 33.5 | 410 |
| 14:30 - 15:00 | 21.1 | 21.5 | 20.8 | 50 | 0.0 | 9.4 | 66 | 23.4 | 762 |
| 15:00 - 15:30 | 21.1 | 21.3 | 20.7 | 50 | 0.0 | 10.4 | 86 | 31.3 | 666 |
| 15:30 - 16:00 | 21.1 | 21.3 | 20.9 | 49 | 0.0 | 9.4 | 88 | 27.0 | 571 |
| 16:00 - 16:30 | 20.9 | 21.3 | 20.6 | 48 | 0.0 | 9.4 | 78 | 32.8 | 402 |
| 16:30 - 17:00 | 20.5 | 20.8 | 20.1 | 45 | 0.0 | 7.2 | 82 | 21.2 | 210 |
| 17:00 - 17:30 | (s/d) | (s/d) | (s/d) | (s/d) | (s/d) | (s/d) | (s/d) | (s/d) | (s/d) |
Les dades en taronja només han passat un control de qualitat automàtic. Resta pendent la seva validació definitiva.